Huvudsida
METAR-TAF:

METAR-TAF

Flygplatser :

Subic Bay, Filippinerna

latitud: 14-48N, longitud: 120-16E, höjd: 18 m

Aktuellt väderrapport

Denna rapport gjordes för 52 minuter sedan, klockan 19:00 UTC
Vind 3 kt från ost
Temperatur 24°C
Fuktighet 83%
Tryck 1014 hPa
Sikt 10 km eller mer
Få moln på en höjd av 2000 ft

METAR: RPLB 221900Z 08003KT 9999 FEW020 24/21 Q1014 NOSIG RMK A2994

Tid: 03:52 (19:52 UTC)

Väderprognos

Denna rapport gjordes för 2 timmar och 52 minuter sedan, klockan 17:00 UTC
Prognos gäller från 22 kl. 18 UTC till 23 kl. 18 UTC
Vind 8 kt från ost
Sikt 10 km eller mer
Få moln på en höjd av 2000 ft
Temporärt
från 22 kl. 18 UTC till 22 kl. 24 UTC
Vind 4 kt från ost/nordost

TAF: RPLB 221700Z 2218/2318 08008KT 9999 FEW020 TX35/2306Z TN23/2221Z TEMPO 2218/2224 07004KT

Aktuella väderrapporter och prognoser från 4000 flygplatser (METAR- och TAF-rapporter).

De tillgängliga stationerna syns som gula och röda prickar på kartan.

För musen över prickarna för att se namnen på stationerna.

Klicka sedan för att få väderrapporter och prognoser.

För att ändra kartan: Klicka på de gröna knapparna med ett svart kors på för att zooma in; den gröna knappen med ett streck på för att zooma ut; eller på de gröna pilarna för angränsande kartor.


METAR-TAF: